createdAt,value
2023-04-05T00:02:51.624Z,9.73
2023-04-05T00:07:08.499Z,11.48
2023-04-05T00:11:21.326Z,12.68
2023-04-05T00:15:33.809Z,12.55
2023-04-05T00:19:46.221Z,13.27
2023-04-05T00:23:58.921Z,13.45
2023-04-05T00:28:12.583Z,13.60
2023-04-05T00:32:25.053Z,12.68
2023-04-05T00:36:37.566Z,11.35
2023-04-05T00:40:50.188Z,10.32
2023-04-05T00:45:04.306Z,10.60
2023-04-05T00:49:17.263Z,11.25
2023-04-05T00:53:29.896Z,11.10
2023-04-05T00:57:42.605Z,12.48
2023-04-05T01:02:06.914Z,11.23
2023-04-05T01:06:44.354Z,10.63
2023-04-05T01:11:00.930Z,10.93
2023-04-05T01:15:14.279Z,10.60
2023-04-05T01:19:30.230Z,12.30
2023-04-05T01:24:30.963Z,13.38
2023-04-05T01:29:20.449Z,13.52
2023-04-05T01:33:41.429Z,13.18
2023-04-05T01:38:00.107Z,12.75
2023-04-05T01:42:12.526Z,12.98
2023-04-05T01:46:26.019Z,14.02
2023-04-05T01:50:38.958Z,13.43
2023-04-05T01:54:51.784Z,11.85
2023-04-05T01:59:04.232Z,10.07
2023-04-05T02:03:17.431Z,8.85
2023-04-05T02:07:30.122Z,8.05
2023-04-05T02:11:42.651Z,8.30
2023-04-05T02:15:55.081Z,8.93
2023-04-05T02:20:12.667Z,9.38
2023-04-05T02:24:25.068Z,8.38
2023-04-05T02:28:37.577Z,8.40
2023-04-05T02:32:50.060Z,8.43
2023-04-05T02:37:03.197Z,7.32
2023-04-05T02:41:15.711Z,7.75
2023-04-05T02:45:28.604Z,6.60
2023-04-05T02:49:43.533Z,6.72
2023-04-05T02:53:56.575Z,6.18
2023-04-05T02:58:11.001Z,5.45
2023-04-05T03:02:29.256Z,6.45
2023-04-05T03:06:45.135Z,6.70
2023-04-05T03:10:58.972Z,6.72
2023-04-05T03:15:11.752Z,6.45
2023-04-05T03:19:27.754Z,6.18
2023-04-05T03:23:48.769Z,6.60
2023-04-05T03:28:06.738Z,6.40
2023-04-05T03:32:19.890Z,5.70
2023-04-05T03:36:46.090Z,5.63
2023-04-05T03:41:16.698Z,5.47
2023-04-05T03:45:32.273Z,5.68
2023-04-05T03:49:44.707Z,6.30
2023-04-05T03:53:57.286Z,6.00
2023-04-05T03:58:12.821Z,6.10
2023-04-05T04:02:26.150Z,6.18
2023-04-05T04:06:38.696Z,5.97
2023-04-05T04:10:51.465Z,7.13
2023-04-05T04:15:13.229Z,10.55
2023-04-05T04:19:30.575Z,11.32
2023-04-05T04:24:01.439Z,11.95
2023-04-05T04:33:09.686Z,8.85
2023-04-05T04:38:00.132Z,7.97
2023-04-05T04:42:26.148Z,8.27
2023-04-05T04:46:54.941Z,8.30
2023-04-05T04:51:26.703Z,8.98
2023-04-05T04:55:42.595Z,10.07
2023-04-05T04:59:55.165Z,9.98
2023-04-05T05:04:07.630Z,9.93
2023-04-05T05:08:22.335Z,10.40
2023-04-05T05:12:34.829Z,11.65
2023-04-05T05:16:47.337Z,11.85
2023-04-05T05:20:59.757Z,12.57
2023-04-05T05:25:12.671Z,14.07
2023-04-05T05:29:26.435Z,14.65
2023-04-05T05:33:38.968Z,16.23
2023-04-05T05:37:51.387Z,15.73
2023-04-05T05:42:03.978Z,15.75
2023-04-05T05:46:16.706Z,14.13
2023-04-05T05:50:33.181Z,13.77
2023-04-05T05:54:45.722Z,14.45
2023-04-05T05:58:59.733Z,15.52
2023-04-05T06:03:12.472Z,16.42
2023-04-05T06:07:25.104Z,18.08
2023-04-05T06:11:46.262Z,19.40
2023-04-05T06:16:02.968Z,17.48
2023-04-05T06:20:15.578Z,17.40
2023-04-05T06:24:32.129Z,18.05
2023-04-05T06:28:44.812Z,18.63
2023-04-05T06:32:57.768Z,18.65
2023-04-05T06:37:10.314Z,18.02
2023-04-05T06:41:22.730Z,16.98
2023-04-05T06:45:35.218Z,17.92
2023-04-05T06:49:47.718Z,17.23
2023-04-05T06:54:00.230Z,17.85
2023-04-05T06:58:12.635Z,16.77
2023-04-05T07:02:25.109Z,15.02
2023-04-05T07:06:39.456Z,14.10
2023-04-05T07:10:52.726Z,13.82
2023-04-05T07:15:05.836Z,13.98
2023-04-05T07:19:18.228Z,12.82
2023-04-05T07:23:31.376Z,11.40
2023-04-05T07:27:43.854Z,10.68
2023-04-05T07:31:56.373Z,9.07
2023-04-05T07:36:09.452Z,7.40
2023-04-05T07:40:21.876Z,5.28
2023-04-05T07:44:34.390Z,4.85
2023-04-05T07:48:50.009Z,3.90
2023-04-05T07:53:02.750Z,4.55
2023-04-05T07:57:19.174Z,3.15
2023-04-05T08:01:32.261Z,3.25
2023-04-05T08:05:44.679Z,3.28
2023-04-05T08:09:58.240Z,2.63
2023-04-05T08:14:11.104Z,3.40
2023-04-05T08:18:23.595Z,2.25
2023-04-05T08:22:36.071Z,2.33
2023-04-05T08:26:49.068Z,2.10
2023-04-05T08:31:01.843Z,2.80
2023-04-05T08:35:14.426Z,3.30
2023-04-05T08:39:27.246Z,2.70
2023-04-05T08:43:58.959Z,2.67
2023-04-05T08:48:11.512Z,2.05
2023-04-05T08:52:24.062Z,2.10
2023-04-05T08:56:37.038Z,2.45
2023-04-05T09:00:51.756Z,2.72
2023-04-05T09:05:09.290Z,2.70
2023-04-05T09:09:23.092Z,2.83
2023-04-05T09:13:35.757Z,3.30
2023-04-05T09:17:48.754Z,2.85
2023-04-05T09:22:08.477Z,3.88
2023-04-05T09:26:26.651Z,3.42
2023-04-05T09:30:48.469Z,2.97
2023-04-05T09:35:08.262Z,3.28
2023-04-05T09:39:29.450Z,3.38
2023-04-05T09:43:43.051Z,3.00
2023-04-05T09:47:58.614Z,3.10
2023-04-05T09:52:25.416Z,4.10
2023-04-05T09:56:42.348Z,5.35
2023-04-05T10:01:06.178Z,4.53
2023-04-05T10:05:28.996Z,4.78
2023-04-05T10:09:43.232Z,4.35
2023-04-05T10:13:55.869Z,3.25
2023-04-05T10:18:19.930Z,3.17
2023-04-05T10:22:53.212Z,3.20
2023-04-05T10:27:21.711Z,2.83
2023-04-05T10:31:58.960Z,2.25
2023-04-05T10:36:46.908Z,1.90
2023-04-05T10:41:16.868Z,2.20
2023-04-05T10:45:30.011Z,2.80
2023-04-05T10:49:50.165Z,3.00
2023-04-05T10:54:03.512Z,3.30
2023-04-05T10:58:16.939Z,3.42
2023-04-05T11:02:30.852Z,3.47
2023-04-05T11:06:48.138Z,3.60
2023-04-05T11:11:01.129Z,3.60
2023-04-05T11:15:32.040Z,4.18
2023-04-05T11:19:50.266Z,4.10
2023-04-05T11:24:12.233Z,3.70
2023-04-05T11:28:34.485Z,4.00
2023-04-05T11:32:46.936Z,4.32
2023-04-05T11:36:59.385Z,4.88
2023-04-05T11:41:18.521Z,5.07
2023-04-05T11:45:32.423Z,3.70
2023-04-05T11:49:50.801Z,3.80
2023-04-05T11:54:03.242Z,4.03
2023-04-05T11:58:21.604Z,4.72
2023-04-05T12:02:36.371Z,3.83
2023-04-05T12:06:49.532Z,5.35
2023-04-05T12:11:01.980Z,7.53
2023-04-05T12:15:15.529Z,7.00
2023-04-05T12:19:30.636Z,8.00
2023-04-05T12:23:43.373Z,9.25
2023-04-05T12:27:55.845Z,8.00
2023-04-05T12:32:08.302Z,7.60
2023-04-05T12:36:20.814Z,9.80
2023-04-05T12:40:36.002Z,8.93
2023-04-05T12:45:03.618Z,8.02
2023-04-05T12:49:18.109Z,6.97
2023-04-05T12:53:30.702Z,7.95
2023-04-05T12:57:43.480Z,5.32
2023-04-05T13:01:55.870Z,4.82
2023-04-05T13:06:08.324Z,6.80
2023-04-05T13:10:22.146Z,6.07
2023-04-05T13:14:34.625Z,4.93
2023-04-05T13:18:47.075Z,5.10
2023-04-05T13:22:59.543Z,5.45
2023-04-05T13:27:11.899Z,5.53
2023-04-05T13:31:24.466Z,6.05
2023-04-05T13:35:37.120Z,5.93
2023-04-05T13:39:49.539Z,7.38
2023-04-05T13:44:03.395Z,6.78
2023-04-05T13:48:16.869Z,6.20
2023-04-05T13:52:30.116Z,6.35
2023-04-05T13:56:42.814Z,6.55
2023-04-05T14:00:55.293Z,6.60
2023-04-05T14:05:08.698Z,6.40
2023-04-05T14:09:21.380Z,6.72
2023-04-05T14:13:35.728Z,6.82
2023-04-05T14:17:48.321Z,6.70
2023-04-05T14:22:00.903Z,5.80
2023-04-05T14:26:13.564Z,6.30
2023-04-05T14:30:26.458Z,6.78
2023-04-05T14:34:39.121Z,6.88
2023-04-05T14:38:51.533Z,4.63
2023-04-05T14:43:04.175Z,2.45
2023-04-05T14:47:16.761Z,1.80
2023-04-05T14:51:29.288Z,1.90
2023-04-05T14:55:41.805Z,2.25
2023-04-05T14:59:54.340Z,1.70
2023-04-05T15:04:08.883Z,2.47
2023-04-05T15:08:21.864Z,1.85
2023-04-05T15:12:34.351Z,2.55
2023-04-05T15:16:46.792Z,2.15
2023-04-05T15:21:00.125Z,1.88
2023-04-05T15:25:12.817Z,2.22
2023-04-05T15:29:25.746Z,2.60
2023-04-05T15:33:38.390Z,3.55
2023-04-05T15:37:50.985Z,2.78
2023-04-05T15:42:03.628Z,3.70
2023-04-05T15:46:16.097Z,3.92
2023-04-05T15:50:29.273Z,2.88
2023-04-05T15:54:41.762Z,3.25
2023-04-05T15:58:54.215Z,4.28
2023-04-05T16:03:06.757Z,3.90
2023-04-05T16:07:19.875Z,4.45
2023-04-05T16:11:32.342Z,3.10
2023-04-05T16:15:44.969Z,3.65
2023-04-05T16:19:57.591Z,3.47
2023-04-05T16:24:10.273Z,3.15
2023-04-05T16:28:22.853Z,4.20
2023-04-05T16:32:35.396Z,3.83
2023-04-05T16:36:48.443Z,4.60
2023-04-05T16:41:00.845Z,5.82
2023-04-05T16:45:13.327Z,4.75
2023-04-05T16:49:25.694Z,4.95
2023-04-05T16:53:38.229Z,5.90
2023-04-05T16:57:50.825Z,6.50
2023-04-05T17:02:03.410Z,6.40
2023-04-05T17:06:16.157Z,6.53
2023-04-05T17:10:28.924Z,6.90
2023-04-05T17:14:41.440Z,11.15
2023-04-05T17:18:53.897Z,7.68
2023-04-05T17:23:06.425Z,9.52
2023-04-05T17:27:18.896Z,12.70
2023-04-05T17:31:33.622Z,10.38
2023-04-05T17:35:46.214Z,8.32
2023-04-05T17:39:58.697Z,7.60
2023-04-05T17:44:11.213Z,7.32
2023-04-05T17:48:23.945Z,8.05
2023-04-05T17:52:36.391Z,8.60
2023-04-05T17:56:48.842Z,9.77
2023-04-05T18:01:01.761Z,9.48
2023-04-05T18:05:14.200Z,10.85
2023-04-05T18:09:28.244Z,12.20
2023-04-05T18:13:40.669Z,12.00
2023-04-05T18:17:53.168Z,12.48
2023-04-05T18:22:05.624Z,13.73
2023-04-05T18:26:18.866Z,12.90
2023-04-05T18:30:41.374Z,16.88
2023-04-05T18:34:53.861Z,13.93
2023-04-05T18:39:06.882Z,17.80
2023-04-05T18:43:19.468Z,22.73
2023-04-05T18:47:33.092Z,21.23
2023-04-05T18:51:49.034Z,20.10
2023-04-05T18:56:01.614Z,22.20
2023-04-05T19:00:14.433Z,21.27
2023-04-05T19:04:26.923Z,17.30
2023-04-05T19:08:40.406Z,16.05
2023-04-05T19:12:52.909Z,15.05
2023-04-05T19:17:06.974Z,12.73
2023-04-05T19:21:20.966Z,12.55
2023-04-05T19:25:33.354Z,11.43
2023-04-05T19:29:46.082Z,11.13
2023-04-05T19:33:59.526Z,11.75
2023-04-05T19:38:14.557Z,12.15
2023-04-05T19:42:27.027Z,10.25
2023-04-05T19:46:40.872Z,10.45
2023-04-05T19:50:56.295Z,10.38
2023-04-05T19:55:27.324Z,11.30
2023-04-05T19:59:40.152Z,11.85
2023-04-05T20:03:52.553Z,11.20
2023-04-05T20:08:07.746Z,11.63
2023-04-05T20:12:22.786Z,12.77
2023-04-05T20:16:37.683Z,14.38
2023-04-05T20:20:50.291Z,14.55
2023-04-05T20:25:34.138Z,13.00
2023-04-05T20:29:46.670Z,12.43
2023-04-05T20:34:11.868Z,11.15
2023-04-05T20:38:24.342Z,11.63
2023-04-05T20:42:37.733Z,11.80
2023-04-05T20:46:54.868Z,17.65
2023-04-05T20:51:08.588Z,15.40
2023-04-05T20:55:21.087Z,14.52
2023-04-05T20:59:33.523Z,14.57
2023-04-05T21:03:47.115Z,14.23
2023-04-05T21:08:01.460Z,13.88
2023-04-05T21:12:14.239Z,13.55
2023-04-05T21:16:26.740Z,13.10
2023-04-05T21:20:39.184Z,12.20
2023-04-05T21:24:51.492Z,11.50
2023-04-05T21:29:03.884Z,11.15
2023-04-05T21:33:18.397Z,10.95
2023-04-05T21:37:30.940Z,10.18
2023-04-05T21:41:43.412Z,10.65
2023-04-05T21:45:55.694Z,10.48
2023-04-05T21:50:10.512Z,11.00
2023-04-05T21:54:22.920Z,11.98
2023-04-05T21:58:35.530Z,11.32
2023-04-05T22:02:47.932Z,12.40
2023-04-05T22:07:00.665Z,12.38
2023-04-05T22:11:13.686Z,12.95
2023-04-05T22:15:26.073Z,11.43
2023-04-05T22:19:38.532Z,11.32
2023-04-05T22:23:51.136Z,11.88
2023-04-05T22:28:03.519Z,11.60
2023-04-05T22:32:16.341Z,10.27
2023-04-05T22:36:28.793Z,10.63
2023-04-05T22:40:41.284Z,10.68
2023-04-05T22:44:53.781Z,10.95
2023-04-05T22:49:06.708Z,10.93
2023-04-05T22:53:19.620Z,10.40
2023-04-05T22:57:32.020Z,9.23
2023-04-05T23:01:44.479Z,8.63
2023-04-05T23:05:57.028Z,8.10
2023-04-05T23:10:09.968Z,7.95
2023-04-05T23:14:22.354Z,8.20
2023-04-05T23:18:34.703Z,8.07
2023-04-05T23:22:48.293Z,8.27
2023-04-05T23:27:00.741Z,8.52
2023-04-05T23:31:13.200Z,8.27
2023-04-05T23:35:25.888Z,8.23
2023-04-05T23:39:38.345Z,8.35
2023-04-05T23:43:50.904Z,8.48
2023-04-05T23:48:03.417Z,9.23
2023-04-05T23:52:16.818Z,8.52
2023-04-05T23:56:29.218Z,7.80
